Time;durP1;ratioP1;P1;durP2;ratioP2;P2;SDS_P1;SDS_P2;PMS_P1;PMS_P2;Temp;Humidity;BMP_temperature;BMP_pressure;BME280_temperature;BME280_humidity;BME280_pressure;Samples;Min_cycle;Max_cycle;Signal;HPM_P1;HPM_P2
2021/07/31 00:01:08;;;;;;;12.97;8.90;;;17.60;99.90;;;;;;5020306;28;20438;-56
2021/07/31 00:03:38;;;;;;;13.43;9.37;;;17.60;99.90;;;;;;5031747;28;20177;-55
2021/07/31 00:06:05;;;;;;;14.37;9.20;;;17.60;99.90;;;;;;5021184;28;20755;-55
2021/07/31 00:08:31;;;;;;;12.00;8.73;;;17.60;99.90;;;;;;5021905;28;20959;-55
2021/07/31 00:10:57;;;;;;;18.77;10.30;;;17.60;99.90;;;;;;5039876;28;20434;-55
2021/07/31 00:13:24;;;;;;;12.43;9.33;;;17.60;99.90;;;;;;5021631;28;20455;-56
2021/07/31 00:15:50;;;;;;;19.47;10.10;;;17.50;99.90;;;;;;5022160;28;20203;-56
2021/07/31 00:18:16;;;;;;;14.73;8.27;;;17.50;99.90;;;;;;5022333;28;20435;-56
2021/07/31 00:20:42;;;;;;;16.50;9.13;;;17.50;99.90;;;;;;5023573;28;20496;-56
2021/07/31 00:23:08;;;;;;;15.77;8.80;;;17.50;99.90;;;;;;5021741;28;20686;-56
2021/07/31 00:25:34;;;;;;;14.63;9.10;;;17.50;99.90;;;;;;5024354;28;20294;-55
2021/07/31 00:28:00;;;;;;;16.77;9.00;;;17.50;99.90;;;;;;5011637;28;20428;-56
2021/07/31 00:30:27;;;;;;;11.70;8.87;;;17.50;99.90;;;;;;5016484;28;20516;-56
2021/07/31 00:32:54;;;;;;;12.93;8.63;;;17.50;99.90;;;;;;5013643;28;20191;-56
2021/07/31 00:35:20;;;;;;;15.80;9.23;;;17.50;99.90;;;;;;5021396;28;20465;-56
2021/07/31 00:37:46;;;;;;;12.63;8.97;;;17.50;99.90;;;;;;5022816;28;20438;-55
2021/07/31 00:40:12;;;;;;;18.53;9.80;;;17.50;99.90;;;;;;5024931;28;20492;-55
2021/07/31 00:42:42;;;;;;;12.73;8.73;;;17.50;99.90;;;;;;5014061;28;20341;-54
2021/07/31 00:45:10;;;;;;;12.90;8.73;;;17.50;99.90;;;;;;5018599;28;20470;-55
2021/07/31 00:47:36;;;;;;;15.23;9.10;;;17.50;99.90;;;;;;5020398;28;20473;-56
2021/07/31 00:50:02;;;;;;;13.03;8.37;;;17.50;99.90;;;;;;5022696;28;20548;-55
2021/07/31 00:52:28;;;;;;;15.67;8.67;;;17.50;99.90;;;;;;5020822;28;20948;-56
2021/07/31 00:54:57;;;;;;;11.90;8.57;;;17.40;99.90;;;;;;5022926;28;20462;-55
2021/07/31 00:57:23;;;;;;;13.47;8.23;;;17.40;99.90;;;;;;5027131;28;20445;-55
2021/07/31 00:59:49;;;;;;;13.83;9.47;;;17.40;99.90;;;;;;5027170;28;20951;-55
2021/07/31 01:02:15;;;;;;;13.90;9.40;;;17.40;99.90;;;;;;5026090;28;20438;-55
2021/07/31 01:04:41;;;;;;;29.87;16.13;;;17.40;99.90;;;;;;5027529;28;20939;-56
2021/07/31 01:07:07;;;;;;;15.00;9.57;;;17.40;99.90;;;;;;5024676;28;20469;-55
2021/07/31 01:09:33;;;;;;;11.43;8.67;;;17.40;99.90;;;;;;5026748;28;20532;-55
2021/07/31 01:11:59;;;;;;;13.80;9.40;;;17.30;99.90;;;;;;5021801;28;20529;-55
2021/07/31 01:14:25;;;;;;;11.77;7.97;;;17.30;99.90;;;;;;5023326;28;20203;-56
2021/07/31 01:16:50;;;;;;;11.50;8.27;;;17.30;99.90;;;;;;5018173;28;20188;-56
2021/07/31 01:19:16;;;;;;;12.27;8.00;;;17.30;99.90;;;;;;5020879;28;20236;-56
2021/07/31 01:21:44;;;;;;;10.90;8.60;;;17.30;99.90;;;;;;5026002;28;20542;-55
2021/07/31 01:24:12;;;;;;;11.13;8.43;;;17.30;99.90;;;;;;5026677;28;20204;-54
2021/07/31 01:26:39;;;;;;;14.03;8.30;;;17.30;99.90;;;;;;5022494;28;20979;-56
2021/07/31 01:29:06;;;;;;;13.50;7.80;;;17.20;99.90;;;;;;5006774;28;20438;-55
2021/07/31 01:31:34;;;;;;;17.37;8.30;;;17.20;99.90;;;;;;5035051;28;20435;-56
2021/07/31 01:34:00;;;;;;;11.57;8.47;;;17.20;99.90;;;;;;5020824;28;20466;-56
2021/07/31 01:36:25;;;;;;;11.37;7.40;;;17.20;99.90;;;;;;5024133;28;20823;-57
2021/07/31 01:38:51;;;;;;;19.00;8.60;;;17.20;99.90;;;;;;5027321;28;20222;-57
2021/07/31 01:41:17;;;;;;;14.03;8.20;;;17.20;99.90;;;;;;5025853;28;20532;-57
2021/07/31 01:43:43;;;;;;;20.20;8.73;;;17.20;99.90;;;;;;5022561;28;20283;-57
2021/07/31 01:46:09;;;;;;;12.27;8.77;;;17.20;99.90;;;;;;5024821;28;20903;-56
2021/07/31 01:48:35;;;;;;;15.20;8.57;;;17.20;99.90;;;;;;5020745;28;20191;-56
2021/07/31 01:51:00;;;;;;;14.07;8.50;;;17.20;99.90;;;;;;5024215;28;20207;-57
2021/07/31 01:53:26;;;;;;;18.53;8.43;;;17.20;99.90;;;;;;5023339;28;20187;-57
2021/07/31 01:55:52;;;;;;;12.07;8.77;;;17.20;99.90;;;;;;5019667;28;20203;-56
2021/07/31 01:58:17;;;;;;;11.57;7.97;;;17.20;99.90;;;;;;5025745;28;20535;-57
2021/07/31 02:00:43;;;;;;;10.17;7.80;;;17.20;99.90;;;;;;5022010;28;20214;-57
2021/07/31 02:03:09;;;;;;;10.27;7.27;;;17.10;99.90;;;;;;5026249;28;20180;-57
2021/07/31 02:05:35;;;;;;;10.80;8.40;;;17.10;99.90;;;;;;5025040;28;20195;-56
2021/07/31 02:08:01;;;;;;;12.17;8.23;;;17.10;99.90;;;;;;5017184;28;20443;-56
2021/07/31 02:10:26;;;;;;;16.50;8.83;;;17.00;99.90;;;;;;5040472;28;20946;-56
2021/07/31 02:12:52;;;;;;;14.73;7.73;;;17.00;99.90;;;;;;5024952;28;20541;-56
2021/07/31 02:15:18;;;;;;;16.20;8.33;;;16.90;99.90;;;;;;5025764;28;20200;-55
2021/07/31 02:17:43;;;;;;;14.57;7.27;;;16.90;99.90;;;;;;5025710;28;20474;-56
2021/07/31 02:20:10;;;;;;;12.30;8.10;;;16.90;99.90;;;;;;5023414;28;20187;-56
2021/07/31 02:22:35;;;;;;;18.00;9.13;;;16.90;99.90;;;;;;5023204;28;20199;-55
2021/07/31 02:25:01;;;;;;;10.60;7.90;;;16.90;99.90;;;;;;5016622;28;20462;-55
2021/07/31 02:27:27;;;;;;;13.70;8.33;;;16.90;99.90;;;;;;5025056;28;20746;-55
2021/07/31 02:29:52;;;;;;;16.93;8.60;;;16.80;99.90;;;;;;5019344;28;20596;-56
2021/07/31 02:32:18;;;;;;;12.70;8.03;;;16.80;99.90;;;;;;5037661;28;20177;-56
2021/07/31 02:34:44;;;;;;;16.70;7.90;;;16.80;99.90;;;;;;5033195;23;20224;-58
2021/07/31 02:37:10;;;;;;;11.63;7.83;;;16.80;99.90;;;;;;5018407;28;20187;-60
2021/07/31 02:39:36;;;;;;;12.90;8.27;;;16.80;99.90;;;;;;5015108;28;20459;-58
2021/07/31 02:42:02;;;;;;;11.10;8.30;;;16.70;99.90;;;;;;5030256;28;21024;-58
2021/07/31 02:44:27;;;;;;;11.63;8.03;;;16.70;99.90;;;;;;5006780;28;20450;-58
2021/07/31 02:46:53;;;;;;;16.03;8.80;;;16.70;99.90;;;;;;5008597;28;20200;-58
2021/07/31 02:49:18;;;;;;;15.63;8.60;;;16.60;99.90;;;;;;5011749;28;20230;-58
2021/07/31 02:51:44;;;;;;;15.57;8.27;;;16.60;99.90;;;;;;5008958;28;20647;-58
2021/07/31 02:54:10;;;;;;;12.13;8.03;;;16.60;99.90;;;;;;5013965;28;20187;-58
2021/07/31 02:56:35;;;;;;;11.03;7.80;;;16.50;99.90;;;;;;5017453;28;20198;-57
2021/07/31 02:59:01;;;;;;;10.53;7.90;;;16.50;99.90;;;;;;5032821;28;20191;-58
2021/07/31 03:01:27;;;;;;;8.67;7.10;;;16.50;99.90;;;;;;5013561;28;20210;-58
2021/07/31 03:03:54;;;;;;;16.77;7.60;;;16.50;99.90;;;;;;5018347;28;20189;-57
2021/07/31 03:06:20;;;;;;;13.40;7.30;;;16.40;99.90;;;;;;5001456;28;20645;-58
2021/07/31 03:08:45;;;;;;;11.73;8.00;;;16.40;99.90;;;;;;5016244;28;20967;-58
2021/07/31 03:11:11;;;;;;;14.17;7.40;;;16.40;99.90;;;;;;5005581;28;20565;-57
2021/07/31 03:13:37;;;;;;;10.47;7.60;;;16.40;99.90;;;;;;5005023;28;20260;-58
2021/07/31 03:16:04;;;;;;;14.20;8.13;;;16.40;99.90;;;;;;5005886;28;20362;-57
2021/07/31 03:18:30;;;;;;;13.00;7.43;;;16.40;99.90;;;;;;4999844;28;20581;-58
2021/07/31 03:20:56;;;;;;;12.03;7.90;;;16.40;99.90;;;;;;5011644;28;20414;-58
2021/07/31 03:23:23;;;;;;;15.23;7.87;;;16.40;99.90;;;;;;5010085;28;20528;-58
2021/07/31 03:25:54;;;;;;;17.53;7.90;;;16.40;99.90;;;;;;5016087;28;20253;-58
2021/07/31 03:28:20;;;;;;;12.17;7.70;;;16.40;99.90;;;;;;5019900;28;20431;-58
2021/07/31 03:30:46;;;;;;;16.87;7.80;;;16.30;99.90;;;;;;5008889;28;20458;-58
2021/07/31 03:33:12;;;;;;;10.73;7.30;;;16.30;99.90;;;;;;5009698;28;20242;-59
2021/07/31 03:35:40;;;;;;;10.40;7.30;;;16.30;99.90;;;;;;5008438;28;21996;-57
2021/07/31 03:38:06;;;;;;;8.30;7.00;;;16.30;99.90;;;;;;5009489;28;20484;-58
2021/07/31 03:40:32;;;;;;;10.17;6.33;;;16.20;99.90;;;;;;5010392;28;21036;-58
2021/07/31 03:42:59;;;;;;;14.40;6.50;;;16.20;99.90;;;;;;5010862;28;20473;-59
2021/07/31 03:45:24;;;;;;;12.80;7.10;;;16.20;99.90;;;;;;5005361;28;20457;-58
2021/07/31 03:47:51;;;;;;;11.93;7.50;;;16.20;99.90;;;;;;5019674;28;20860;-58
2021/07/31 03:50:17;;;;;;;12.60;6.73;;;16.10;99.90;;;;;;5009510;28;20180;-61
2021/07/31 03:52:42;;;;;;;15.10;7.80;;;16.10;99.90;;;;;;5008509;28;20437;-59
2021/07/31 03:55:09;;;;;;;16.10;7.07;;;16.10;99.90;;;;;;5009611;28;20458;-58
2021/07/31 03:57:35;;;;;;;15.93;7.50;;;16.10;99.90;;;;;;5002910;28;20583;-58
2021/07/31 04:00:01;;;;;;;13.50;6.50;;;16.00;99.90;;;;;;5009841;28;20434;-59
2021/07/31 04:02:26;;;;;;;9.93;7.50;;;16.00;99.90;;;;;;5021502;28;20194;-58
2021/07/31 04:04:52;;;;;;;20.23;7.37;;;16.00;99.90;;;;;;5002135;28;20446;-58
2021/07/31 04:07:18;;;;;;;11.40;7.10;;;16.00;99.90;;;;;;5004536;28;20286;-58
2021/07/31 04:09:44;;;;;;;10.10;7.27;;;16.00;99.90;;;;;;5005834;28;20175;-58
2021/07/31 04:12:10;;;;;;;12.50;7.20;;;16.00;99.90;;;;;;5016025;28;20176;-58
2021/07/31 04:14:35;;;;;;;17.10;6.93;;;16.00;99.90;;;;;;5008789;28;20203;-58
2021/07/31 04:17:01;;;;;;;11.77;7.50;;;16.00;99.90;;;;;;5018597;28;20176;-58
2021/07/31 04:19:27;;;;;;;13.83;6.83;;;16.10;99.90;;;;;;5003803;28;20451;-57
2021/07/31 04:21:59;;;;;;;11.93;6.70;;;16.10;99.90;;;;;;5008803;28;20442;-58
2021/07/31 04:24:28;;;;;;;12.33;7.60;;;16.10;99.90;;;;;;5024955;28;20304;-56
2021/07/31 04:26:53;;;;;;;11.70;7.20;;;16.10;99.90;;;;;;5019377;28;21016;-57
2021/07/31 04:29:20;;;;;;;14.90;8.17;;;16.10;99.90;;;;;;5011988;28;20434;-58
2021/07/31 04:31:46;;;;;;;16.57;8.87;;;16.10;99.90;;;;;;4998913;28;20180;-58
2021/07/31 04:34:12;;;;;;;11.43;7.57;;;16.10;99.90;;;;;;5020634;28;20517;-58
2021/07/31 04:36:37;;;;;;;11.30;7.50;;;16.10;99.90;;;;;;5013929;28;20545;-58
2021/07/31 04:39:04;;;;;;;12.33;7.50;;;16.10;99.90;;;;;;5012170;28;20458;-58
2021/07/31 04:41:30;;;;;;;15.07;7.40;;;16.10;99.90;;;;;;5030703;28;20179;-58
2021/07/31 04:43:56;;;;;;;10.37;7.73;;;16.10;99.90;;;;;;5010718;28;21003;-58
2021/07/31 04:46:22;;;;;;;11.07;7.37;;;16.10;99.90;;;;;;5011741;28;20294;-58
2021/07/31 04:48:48;;;;;;;8.83;6.10;;;16.00;99.90;;;;;;5009741;28;20618;-58
2021/07/31 04:51:13;;;;;;;11.80;7.17;;;16.00;99.90;;;;;;5016624;28;20403;-58
2021/07/31 04:53:39;;;;;;;11.70;7.00;;;16.00;99.90;;;;;;5012938;28;20942;-58
2021/07/31 04:56:05;;;;;;;12.50;8.80;;;16.00;99.90;;;;;;5032780;28;20191;-58
2021/07/31 04:58:31;;;;;;;10.00;7.47;;;16.00;99.90;;;;;;5016731;28;20191;-56
2021/07/31 05:01:00;;;;;;;13.37;7.90;;;16.00;99.90;;;;;;5013454;28;20171;-58
2021/07/31 05:03:28;;;;;;;12.73;7.60;;;16.10;99.90;;;;;;5016643;28;20437;-57
2021/07/31 05:05:55;;;;;;;13.37;7.23;;;16.10;99.90;;;;;;5015249;28;20450;-58
2021/07/31 05:08:20;;;;;;;9.10;7.17;;;16.10;99.90;;;;;;5016815;28;20433;-58
2021/07/31 05:10:48;;;;;;;10.60;7.07;;;16.20;99.90;;;;;;5021512;28;20467;-59
2021/07/31 05:13:14;;;;;;;10.50;7.50;;;16.20;99.90;;;;;;5020781;28;20201;-59
2021/07/31 05:15:42;;;;;;;13.23;8.10;;;16.20;99.90;;;;;;5031640;28;20449;-58
2021/07/31 05:18:09;;;;;;;11.70;7.37;;;16.30;99.90;;;;;;5000437;28;20971;-59
2021/07/31 05:20:44;;;;;;;12.80;7.13;;;16.40;99.90;;;;;;5019225;28;20426;-58
2021/07/31 05:23:10;;;;;;;14.93;7.37;;;16.50;99.90;;;;;;5019605;28;20422;-58
2021/07/31 05:25:36;;;;;;;11.70;7.17;;;16.60;99.90;;;;;;5014557;28;20974;-58
2021/07/31 05:28:02;;;;;;;9.70;7.40;;;16.70;99.90;;;;;;5017175;28;20469;-59
2021/07/31 05:30:28;;;;;;;16.43;7.50;;;16.70;99.90;;;;;;5012828;28;20183;-59
2021/07/31 05:32:54;;;;;;;8.50;6.90;;;16.70;99.90;;;;;;5003010;28;20350;-58
2021/07/31 05:35:20;;;;;;;10.50;7.47;;;16.70;99.90;;;;;;5018691;28;20295;-58
2021/07/31 05:37:46;;;;;;;10.50;7.43;;;16.70;99.90;;;;;;5025129;28;20942;-60
2021/07/31 05:40:12;;;;;;;14.17;6.90;;;16.70;99.90;;;;;;5013101;28;20183;-58
2021/07/31 05:42:38;;;;;;;9.47;6.50;;;16.70;99.90;;;;;;5010115;28;20186;-58
2021/07/31 05:45:05;;;;;;;11.20;6.77;;;16.70;99.90;;;;;;5028084;28;20462;-58
2021/07/31 05:47:31;;;;;;;9.83;6.77;;;16.80;99.90;;;;;;5011185;28;20199;-58
2021/07/31 05:49:59;;;;;;;11.63;7.17;;;16.80;99.90;;;;;;5005124;28;20435;-59
2021/07/31 05:52:28;;;;;;;9.57;6.43;;;17.00;99.90;;;;;;5008260;28;20506;-59
2021/07/31 05:54:58;;;;;;;14.03;6.53;;;17.10;99.90;;;;;;5011994;28;20982;-59
2021/07/31 05:57:24;;;;;;;11.03;7.43;;;17.10;99.90;;;;;;5028836;28;20438;-59
2021/07/31 05:59:49;;;;;;;11.90;6.30;;;17.10;99.90;;;;;;5011570;28;20439;-59
2021/07/31 06:02:16;;;;;;;8.53;5.33;;;17.10;99.90;;;;;;5010101;28;20465;-58
2021/07/31 06:04:41;;;;;;;15.77;6.37;;;17.20;99.90;;;;;;5010602;28;20543;-59
2021/07/31 06:07:08;;;;;;;9.13;6.20;;;17.30;99.90;;;;;;5005907;28;20496;-58
2021/07/31 06:09:35;;;;;;;10.27;6.53;;;17.30;99.90;;;;;;5030630;28;20259;-59
2021/07/31 06:12:02;;;;;;;7.90;5.03;;;17.30;99.90;;;;;;5028148;28;21005;-58
2021/07/31 06:14:27;;;;;;;8.67;5.23;;;17.40;99.90;;;;;;5008665;28;20451;-58
2021/07/31 06:16:54;;;;;;;9.43;6.37;;;17.40;99.90;;;;;;5008893;28;20430;-59
2021/07/31 06:19:20;;;;;;;7.20;4.80;;;17.40;99.90;;;;;;5012277;28;20234;-58
2021/07/31 06:21:45;;;;;;;8.73;5.30;;;17.50;99.90;;;;;;5013843;28;21034;-57
2021/07/31 06:24:11;;;;;;;9.50;5.40;;;17.50;99.90;;;;;;5005247;28;20461;-56
2021/07/31 06:26:37;;;;;;;6.83;5.30;;;17.60;99.90;;;;;;5017425;28;20583;-55
2021/07/31 06:29:03;;;;;;;5.70;4.70;;;17.60;99.90;;;;;;5007133;28;20180;-56
2021/07/31 06:31:29;;;;;;;7.17;4.80;;;17.80;99.90;;;;;;5023673;28;20403;-57
2021/07/31 06:33:57;;;;;;;8.40;5.10;;;17.90;99.90;;;;;;5002258;28;20439;-57
2021/07/31 06:36:23;;;;;;;8.73;5.40;;;18.10;99.90;;;;;;5004085;28;20477;-58
2021/07/31 06:38:48;;;;;;;10.13;5.50;;;18.30;99.90;;;;;;5024728;28;20430;-56
2021/07/31 06:41:14;;;;;;;6.47;4.40;;;18.40;99.90;;;;;;5023206;28;20180;-56
2021/07/31 06:43:39;;;;;;;8.10;4.97;;;18.60;99.90;;;;;;5007830;28;20176;-54
2021/07/31 06:46:13;;;;;;;7.87;4.63;;;18.70;99.90;;;;;;5021500;28;20591;-58
2021/07/31 06:48:39;;;;;;;8.47;4.43;;;18.80;99.90;;;;;;5022270;28;20648;-56
2021/07/31 06:51:05;;;;;;;7.23;4.30;;;19.00;99.90;;;;;;5007391;28;20724;-56
2021/07/31 06:53:31;;;;;;;5.27;4.40;;;19.20;99.90;;;;;;4990735;28;20528;-56
2021/07/31 06:56:01;;;;;;;4.47;4.07;;;19.30;99.90;;;;;;5005756;28;20904;-56
2021/07/31 06:58:26;;;;;;;7.63;4.60;;;19.30;99.90;;;;;;5024221;28;20592;-56
2021/07/31 07:00:53;;;;;;;7.73;4.00;;;19.20;99.90;;;;;;5024055;28;20509;-56
2021/07/31 07:03:20;;;;;;;8.17;4.30;;;19.20;99.90;;;;;;5020526;28;20532;-56
2021/07/31 07:05:46;;;;;;;7.23;3.70;;;19.10;99.90;;;;;;4998124;28;20588;-56
2021/07/31 07:08:12;;;;;;;9.50;3.63;;;19.00;99.90;;;;;;5003210;28;20469;-57
2021/07/31 07:10:38;;;;;;;8.87;3.60;;;18.90;99.90;;;;;;5013378;28;20415;-56
2021/07/31 07:13:04;;;;;;;4.30;3.00;;;18.80;99.40;;;;;;5009915;28;20171;-56
2021/07/31 07:15:29;;;;;;;10.60;3.03;;;18.70;99.70;;;;;;5000803;28;20228;-57
2021/07/31 07:17:56;;;;;;;4.93;3.63;;;18.70;99.80;;;;;;5021326;28;20175;-59
2021/07/31 07:20:23;;;;;;;3.17;2.80;;;18.70;99.90;;;;;;5000373;28;20249;-59
2021/07/31 07:22:49;;;;;;;5.40;3.53;;;18.70;99.40;;;;;;5018343;28;20450;-59
2021/07/31 07:25:15;;;;;;;6.13;3.13;;;18.70;99.00;;;;;;5005382;28;20506;-59
2021/07/31 07:27:41;;;;;;;10.13;3.40;;;18.70;99.00;;;;;;5020436;28;20262;-61
2021/07/31 07:30:07;;;;;;;6.20;3.37;;;18.60;99.20;;;;;;4986383;28;20508;-58
2021/07/31 07:32:37;;;;;;;6.10;3.43;;;18.60;99.00;;;;;;5017011;28;20793;-56
2021/07/31 07:35:06;;;;;;;8.87;3.33;;;18.50;99.50;;;;;;5001148;28;20485;-59
2021/07/31 07:37:32;;;;;;;6.50;3.30;;;18.50;98.80;;;;;;5006307;28;20430;-58
2021/07/31 07:39:59;;;;;;;3.77;2.90;;;18.50;99.10;;;;;;5008378;28;20437;-60
2021/07/31 07:42:25;;;;;;;5.80;3.27;;;18.50;99.80;;;;;;5008127;28;20430;-63
2021/07/31 07:44:51;;;;;;;4.50;3.20;;;18.50;99.90;;;;;;5000852;28;20458;-59
2021/07/31 07:47:17;;;;;;;4.70;3.00;;;18.50;99.70;;;;;;5007722;28;20299;-59
2021/07/31 07:49:42;;;;;;;4.07;2.90;;;18.40;98.40;;;;;;5009201;28;20529;-61
2021/07/31 07:52:08;;;;;;;6.63;3.40;;;18.40;98.60;;;;;;5020850;28;20532;-60
2021/07/31 07:54:34;;;;;;;5.33;2.80;;;18.40;99.20;;;;;;5019509;28;20637;-59
2021/07/31 07:57:04;;;;;;;7.57;2.77;;;18.50;99.60;;;;;;5018154;28;20211;-59
2021/07/31 07:59:30;;;;;;;6.30;3.20;;;18.60;99.50;;;;;;4991004;28;20523;-57
2021/07/31 08:01:55;;;;;;;4.93;3.53;;;18.60;97.20;;;;;;4995509;28;20470;-58
2021/07/31 08:04:21;;;;;;;3.57;2.70;;;18.70;98.00;;;;;;5022472;28;20203;-58
2021/07/31 08:06:47;;;;;;;6.80;3.00;;;18.80;96.90;;;;;;5005166;28;20199;-59
2021/07/31 08:09:12;;;;;;;6.50;3.13;;;18.90;97.00;;;;;;5017313;28;20167;-58
2021/07/31 08:11:42;;;;;;;3.30;2.80;;;19.00;97.00;;;;;;5003602;28;20207;-58
2021/07/31 08:14:08;;;;;;;4.20;2.90;;;19.10;96.10;;;;;;5015635;28;20263;-57
2021/07/31 08:16:34;;;;;;;3.67;2.67;;;19.10;95.20;;;;;;5013547;28;20442;-60
2021/07/31 08:18:59;;;;;;;8.10;3.40;;;19.30;95.50;;;;;;5024147;28;20172;-58
2021/07/31 08:21:25;;;;;;;7.60;2.73;;;19.30;93.40;;;;;;5022434;28;20199;-59
2021/07/31 08:23:51;;;;;;;3.87;2.93;;;19.30;93.50;;;;;;5036160;28;20174;-59
2021/07/31 08:26:17;;;;;;;4.10;2.70;;;19.30;94.40;;;;;;5026163;28;20239;-59
2021/07/31 08:28:43;;;;;;;3.47;2.70;;;19.20;94.80;;;;;;5026271;28;20208;-59
2021/07/31 08:31:10;;;;;;;5.03;3.07;;;19.20;96.10;;;;;;5026606;28;20650;-60
2021/07/31 08:33:38;;;;;;;3.80;2.80;;;19.20;96.00;;;;;;5020738;28;20457;-59
2021/07/31 08:36:05;;;;;;;7.20;3.33;;;19.50;96.10;;;;;;5016844;28;20468;-59
2021/07/31 08:38:31;;;;;;;8.27;3.33;;;19.70;94.40;;;;;;5017260;28;20440;-60
2021/07/31 08:40:58;;;;;;;4.53;2.57;;;19.80;94.10;;;;;;5019032;28;20461;-60
2021/07/31 08:43:24;;;;;;;4.27;3.07;;;19.80;92.40;;;;;;4997216;28;20423;-57
2021/07/31 08:45:51;;;;;;;5.13;2.70;;;19.80;91.10;;;;;;5025834;28;21222;-57
2021/07/31 08:48:18;;;;;;;3.60;2.43;;;19.70;91.00;;;;;;5024975;28;20430;-58
2021/07/31 08:50:46;;;;;;;4.80;2.33;;;19.80;87.40;;;;;;5006627;28;20855;-58
2021/07/31 08:53:11;;;;;;;3.90;3.00;;;19.80;87.40;;;;;;4985653;28;20422;-58
2021/07/31 08:55:37;;;;;;;2.97;2.23;;;19.90;91.00;;;;;;5012838;28;20456;-58
2021/07/31 08:58:03;;;;;;;4.23;2.87;;;20.00;87.20;;;;;;5011564;28;20644;-60
2021/07/31 09:00:29;;;;;;;7.23;2.90;;;20.00;83.00;;;;;;5005454;28;20547;-59
2021/07/31 09:02:55;;;;;;;7.63;2.20;;;20.10;85.30;;;;;;5014354;28;20422;-58
2021/07/31 09:05:35;;;;;;;6.63;2.03;;;20.10;81.80;;;;;;5011230;28;20845;-58
2021/07/31 09:08:01;;;;;;;2.80;2.07;;;20.10;80.50;;;;;;5014480;28;20198;-59
2021/07/31 09:10:28;;;;;;;4.17;1.73;;;20.20;82.00;;;;;;5010238;28;20424;-59
2021/07/31 09:12:57;;;;;;;3.30;2.50;;;20.20;79.80;;;;;;5011932;28;20435;-58
2021/07/31 09:15:37;;;;;;;4.57;2.00;;;20.20;80.00;;;;;;5014053;28;20446;-58
2021/07/31 09:18:18;;;;;;;2.70;2.40;;;20.20;73.60;;;;;;5022856;28;20429;-57
2021/07/31 09:20:44;;;;;;;4.47;2.27;;;20.10;72.80;;;;;;5017421;28;20477;-57
2021/07/31 09:23:09;;;;;;;8.63;2.20;;;20.10;79.70;;;;;;5015963;28;20442;-59
2021/07/31 09:25:36;;;;;;;3.00;2.03;;;20.10;75.10;;;;;;5020632;28;20200;-61
2021/07/31 09:28:18;;;;;;;4.60;2.07;;;20.10;76.80;;;;;;5013312;28;20283;-59
2021/07/31 09:30:50;;;;;;;2.30;2.10;;;20.20;72.30;;;;;;5026795;28;20426;-58
2021/07/31 09:33:17;;;;;;;2.50;1.97;;;20.10;70.80;;;;;;5023691;28;20466;-58
2021/07/31 09:35:59;;;;;;;5.73;2.50;;;20.10;70.10;;;;;;5002437;28;20474;-60
2021/07/31 09:38:38;;;;;;;6.00;4.30;;;20.10;72.30;;;;;;5007802;28;20932;-59
2021/07/31 09:41:25;;;;;;;3.90;2.07;;;20.20;74.70;;;;;;5022516;28;20430;-60
2021/07/31 09:44:10;;;;;;;6.47;2.30;;;20.20;74.20;;;;;;5022475;28;20509;-58
2021/07/31 09:46:39;;;;;;;5.07;2.30;;;20.30;74.50;;;;;;5022297;28;20508;-58
2021/07/31 09:49:07;;;;;;;3.60;2.50;;;20.40;71.00;;;;;;5021717;28;20494;-58
2021/07/31 09:51:33;;;;;;;4.23;2.20;;;20.40;72.10;;;;;;5019939;28;20647;-57
2021/07/31 09:54:06;;;;;;;3.67;2.63;;;20.50;72.50;;;;;;5005589;28;20518;-57
2021/07/31 09:56:39;;;;;;;4.77;2.70;;;20.50;73.80;;;;;;4983841;28;20431;-57
2021/07/31 09:59:05;;;;;;;5.00;2.20;;;20.40;71.30;;;;;;5022624;28;20529;-58
2021/07/31 10:01:35;;;;;;;5.30;2.20;;;20.40;72.80;;;;;;5012002;28;20485;-57
2021/07/31 10:04:03;;;;;;;4.43;1.87;;;20.40;72.40;;;;;;5028782;28;20785;-58
2021/07/31 10:06:31;;;;;;;3.27;2.33;;;20.50;71.80;;;;;;5013679;28;20508;-56
2021/07/31 10:09:04;;;;;;;5.47;2.40;;;20.50;73.80;;;;;;5013079;28;20411;-57
2021/07/31 10:11:36;;;;;;;4.73;2.17;;;20.60;73.80;;;;;;4981665;28;20469;-57
2021/07/31 10:14:03;;;;;;;2.50;2.30;;;20.70;70.00;;;;;;4995347;28;20908;-58
2021/07/31 10:16:33;;;;;;;7.90;2.60;;;20.70;71.40;;;;;;5025596;28;20538;-57
2021/07/31 10:19:05;;;;;;;4.30;2.60;;;20.90;74.40;;;;;;5011789;28;20808;-57
2021/07/31 10:21:34;;;;;;;6.73;2.30;;;21.10;78.40;;;;;;5029900;28;20468;-57
2021/07/31 10:24:07;;;;;;;2.80;2.10;;;21.40;74.60;;;;;;5020131;28;20454;-57
2021/07/31 10:26:37;;;;;;;3.60;2.10;;;21.40;65.10;;;;;;4996260;28;20501;-57
2021/07/31 10:29:27;;;;;;;2.87;2.30;;;21.40;63.50;;;;;;5029894;28;20669;-57
2021/07/31 10:31:57;;;;;;;4.53;2.53;;;21.30;63.20;;;;;;5018313;28;20436;-58
2021/07/31 10:34:47;;;;;;;5.00;2.40;;;21.30;65.80;;;;;;5011838;28;20422;-58
2021/07/31 10:37:29;;;;;;;2.30;2.07;;;21.30;63.70;;;;;;5010657;28;20495;-57
2021/07/31 10:40:03;;;;;;;3.03;2.73;;;21.30;67.50;;;;;;5018956;28;20811;-58
2021/07/31 10:42:47;;;;;;;4.77;2.40;;;21.40;67.30;;;;;;4995776;28;21011;-57
2021/07/31 10:45:16;;;;;;;7.40;2.67;;;21.40;68.70;;;;;;5028265;28;20486;-57
2021/07/31 10:47:44;;;;;;;3.97;2.70;;;21.50;70.80;;;;;;5029723;28;20545;-57
2021/07/31 10:52:53;;;;;;;4.10;2.73;;;21.60;71.60;;;;;;5027862;28;20954;-57
2021/07/31 10:55:23;;;;;;;4.70;2.50;;;21.70;69.70;;;;;;5024730;28;20527;-57
2021/07/31 10:57:57;;;;;;;3.97;2.40;;;21.80;68.40;;;;;;5003933;28;20947;-57
2021/07/31 11:00:24;;;;;;;5.53;2.50;;;21.90;69.80;;;;;;4992800;28;20425;-58
2021/07/31 11:02:50;;;;;;;3.10;2.40;;;22.00;68.00;;;;;;5026263;28;20415;-56
2021/07/31 11:05:16;;;;;;;3.60;2.23;;;22.10;67.60;;;;;;5022997;28;20439;-58
2021/07/31 11:07:57;;;;;;;3.90;2.40;;;22.10;64.60;;;;;;5022793;28;20470;-60
2021/07/31 11:10:44;;;;;;;4.57;2.33;;;22.20;65.30;;;;;;5017020;28;20412;-56
2021/07/31 11:13:35;;;;;;;7.47;2.63;;;22.30;67.90;;;;;;5017237;28;20434;-59
2021/07/31 11:16:06;;;;;;;4.80;2.20;;;22.40;65.60;;;;;;5010035;28;20450;-57
2021/07/31 11:18:35;;;;;;;4.37;2.50;;;22.30;65.70;;;;;;5020920;28;20432;-58
2021/07/31 11:21:17;;;;;;;4.43;2.20;;;22.20;68.00;;;;;;5023201;28;20776;-57
2021/07/31 11:23:50;;;;;;;3.23;2.30;;;22.10;64.50;;;;;;5009798;28;20433;-57
2021/07/31 11:26:39;;;;;;;5.27;2.90;;;22.00;62.50;;;;;;4993859;28;21019;-57
2021/07/31 11:29:13;;;;;;;3.63;2.30;;;22.00;63.00;;;;;;5011237;28;20461;-57
2021/07/31 11:31:41;;;;;;;7.37;2.33;;;22.00;66.10;;;;;;4992450;28;20447;-56
2021/07/31 11:34:09;;;;;;;4.13;2.67;;;22.10;68.00;;;;;;5022952;28;20967;-59
2021/07/31 11:36:55;;;;;;;5.03;2.13;;;22.20;73.50;;;;;;5027738;28;20897;-57
2021/07/31 11:39:21;;;;;;;4.10;1.90;;;22.20;61.80;;;;;;5018277;28;20915;-57
2021/07/31 11:41:47;;;;;;;3.00;1.80;;;22.10;62.20;;;;;;5027758;28;20434;-58
2021/07/31 11:44:23;;;;;;;7.10;4.77;;;22.00;59.50;;;;;;5002329;28;20188;-57
2021/07/31 11:46:49;;;;;;;3.80;2.10;;;21.80;60.40;;;;;;5020087;28;20207;-59
2021/07/31 11:49:26;;;;;;;1.90;1.70;;;21.80;62.30;;;;;;5025606;28;20454;-58
2021/07/31 11:51:53;;;;;;;5.63;2.20;;;21.60;57.70;;;;;;5016544;28;21127;-56
2021/07/31 11:54:19;;;;;;;3.37;2.30;;;21.50;59.70;;;;;;5016420;28;20419;-58
2021/07/31 11:56:46;;;;;;;4.27;2.07;;;21.40;62.50;;;;;;5015260;28;20473;-57
2021/07/31 11:59:21;;;;;;;1.87;1.67;;;21.40;62.10;;;;;;5011783;28;20996;-57
2021/07/31 12:01:47;;;;;;;5.90;2.17;;;21.40;62.50;;;;;;5028030;28;20414;-57
2021/07/31 12:04:13;;;;;;;4.23;2.20;;;21.40;62.80;;;;;;5026870;28;20441;-57
2021/07/31 12:06:40;;;;;;;4.50;2.13;;;21.40;64.00;;;;;;4975313;28;20462;-57
2021/07/31 12:09:18;;;;;;;3.63;1.70;;;21.60;64.90;;;;;;5025234;28;20262;-57
2021/07/31 12:11:44;;;;;;;2.73;2.20;;;21.70;65.60;;;;;;5009700;28;20465;-57
2021/07/31 12:14:33;;;;;;;3.60;2.10;;;21.80;64.40;;;;;;5009330;28;20919;-59
2021/07/31 12:17:23;;;;;;;5.57;2.20;;;21.80;64.30;;;;;;5022973;28;20437;-58
2021/07/31 12:19:53;;;;;;;4.07;2.00;;;21.90;63.20;;;;;;5023361;28;20452;-58
2021/07/31 12:22:25;;;;;;;3.37;1.67;;;21.80;63.10;;;;;;5026956;28;20479;-59
2021/07/31 12:25:11;;;;;;;2.07;1.70;;;21.80;62.00;;;;;;5011184;28;21052;-58
2021/07/31 12:28:02;;;;;;;3.67;1.53;;;21.70;58.70;;;;;;5011229;28;20875;-56
2021/07/31 12:30:35;;;;;;;5.73;1.77;;;21.70;57.90;;;;;;5025840;28;20455;-57
2021/07/31 12:33:02;;;;;;;5.60;1.90;;;21.70;56.20;;;;;;5004390;28;20437;-58
2021/07/31 12:35:39;;;;;;;3.33;2.00;;;21.80;54.80;;;;;;5004491;28;20470;-58
2021/07/31 12:38:24;;;;;;;2.10;1.20;;;21.90;54.90;;;;;;5026546;28;20428;-57
2021/07/31 12:40:55;;;;;;;3.60;1.60;;;22.00;54.80;;;;;;5027399;28;20426;-57
2021/07/31 12:43:23;;;;;;;3.27;1.70;;;22.10;51.70;;;;;;5027202;28;20426;-57
2021/07/31 12:45:51;;;;;;;3.50;1.40;;;22.10;52.00;;;;;;5021400;28;20477;-57
2021/07/31 12:48:17;;;;;;;1.60;1.50;;;22.10;51.70;;;;;;5024595;28;20462;-59
2021/07/31 12:50:43;;;;;;;2.73;1.57;;;22.20;51.40;;;;;;5004174;28;20423;-57